createdAt,value
2023-04-09T00:00:12.626Z,12.05
2023-04-09T00:02:39.757Z,10.25
2023-04-09T00:05:07.571Z,11.40
2023-04-09T00:07:34.588Z,11.88
2023-04-09T00:10:01.465Z,11.48
2023-04-09T00:12:30.443Z,12.15
2023-04-09T00:14:57.591Z,11.63
2023-04-09T00:17:24.657Z,12.20
2023-04-09T00:19:51.669Z,11.63
2023-04-09T00:22:18.362Z,11.32
2023-04-09T00:24:45.054Z,11.15
2023-04-09T00:27:11.867Z,11.18
2023-04-09T00:29:38.576Z,11.15
2023-04-09T00:32:05.764Z,10.55
2023-04-09T00:34:32.634Z,10.93
2023-04-09T00:36:59.639Z,11.45
2023-04-09T00:39:26.504Z,11.18
2023-04-09T00:41:58.213Z,11.77
2023-04-09T00:44:25.843Z,11.02
2023-04-09T00:46:54.033Z,11.10
2023-04-09T00:49:21.413Z,11.77
2023-04-09T00:51:48.788Z,11.45
2023-04-09T00:54:16.283Z,12.05
2023-04-09T00:56:44.078Z,11.70
2023-04-09T00:59:11.091Z,11.60
2023-04-09T01:01:37.836Z,11.15
2023-04-09T01:04:05.408Z,10.80
2023-04-09T01:06:56.501Z,10.38
2023-04-09T01:09:37.172Z,9.52
2023-04-09T01:12:46.754Z,10.48
2023-04-09T01:15:26.947Z,9.85
2023-04-09T01:18:01.533Z,9.95
2023-04-09T01:20:52.048Z,10.00
2023-04-09T01:23:51.390Z,9.38
2023-04-09T01:26:51.854Z,8.30
2023-04-09T01:29:20.570Z,9.23
2023-04-09T01:31:49.504Z,10.45
2023-04-09T01:34:17.038Z,10.52
2023-04-09T01:36:49.041Z,11.43
2023-04-09T01:39:16.365Z,10.73
2023-04-09T01:41:44.058Z,10.65
2023-04-09T01:44:12.904Z,11.13
2023-04-09T01:46:40.733Z,10.73
2023-04-09T01:49:09.130Z,10.95
2023-04-09T01:51:36.873Z,11.10
2023-04-09T01:54:04.426Z,10.63
2023-04-09T01:56:41.893Z,10.45
2023-04-09T01:59:08.757Z,10.00
2023-04-09T02:01:50.113Z,10.70
2023-04-09T02:04:20.523Z,10.95
2023-04-09T02:06:47.186Z,12.75
2023-04-09T02:09:17.213Z,11.20
2023-04-09T02:11:46.221Z,11.85
2023-04-09T02:14:13.481Z,11.75
2023-04-09T02:16:40.777Z,12.77
2023-04-09T02:19:07.636Z,12.40
2023-04-09T02:21:34.493Z,10.88
2023-04-09T02:24:01.254Z,11.77
2023-04-09T02:26:27.994Z,11.90
2023-04-09T02:28:54.918Z,11.85
2023-04-09T02:31:21.804Z,11.70
2023-04-09T02:33:48.618Z,11.60
2023-04-09T02:36:15.381Z,11.38
2023-04-09T02:38:42.820Z,11.45
2023-04-09T02:41:10.217Z,11.48
2023-04-09T02:43:37.353Z,12.00
2023-04-09T02:46:04.504Z,11.93
2023-04-09T02:48:31.338Z,12.50
2023-04-09T02:50:58.045Z,12.45
2023-04-09T02:53:25.503Z,12.35
2023-04-09T02:55:52.316Z,12.50
2023-04-09T02:58:19.056Z,10.60
2023-04-09T03:00:45.743Z,11.02
2023-04-09T03:03:12.626Z,10.65
2023-04-09T03:05:39.558Z,10.63
2023-04-09T03:08:06.392Z,10.65
2023-04-09T03:10:33.156Z,10.90
2023-04-09T03:12:59.872Z,11.18
2023-04-09T03:15:26.650Z,12.60
2023-04-09T03:17:53.404Z,11.02
2023-04-09T03:20:20.133Z,12.32
2023-04-09T03:22:46.813Z,12.68
2023-04-09T03:25:13.520Z,12.90
2023-04-09T03:27:40.259Z,13.23
2023-04-09T03:30:07.570Z,10.70
2023-04-09T03:32:34.565Z,12.40
2023-04-09T03:35:01.420Z,12.80
2023-04-09T03:37:28.364Z,14.15
2023-04-09T03:39:55.244Z,14.55
2023-04-09T03:42:21.959Z,14.02
2023-04-09T03:44:48.840Z,14.52
2023-04-09T03:47:15.726Z,14.90
2023-04-09T03:49:42.685Z,15.38
2023-04-09T03:52:09.430Z,14.63
2023-04-09T03:54:36.313Z,15.00
2023-04-09T03:57:04.642Z,13.43
2023-04-09T03:59:31.322Z,15.00
2023-04-09T04:01:58.043Z,16.23
2023-04-09T04:04:24.962Z,15.85
2023-04-09T04:06:51.718Z,15.05
2023-04-09T04:09:18.497Z,15.95
2023-04-09T04:11:45.365Z,14.90
2023-04-09T04:14:12.221Z,11.90
2023-04-09T04:16:41.167Z,11.60
2023-04-09T04:19:07.927Z,12.15
2023-04-09T04:21:34.609Z,11.52
2023-04-09T04:24:01.301Z,11.73
2023-04-09T04:26:28.115Z,12.32
2023-04-09T04:28:54.999Z,12.05
2023-04-09T04:31:21.739Z,12.70
2023-04-09T04:33:48.432Z,13.43
2023-04-09T04:36:15.530Z,16.10
2023-04-09T04:38:42.338Z,15.43
2023-04-09T04:41:10.442Z,17.23
2023-04-09T04:43:37.202Z,17.85
2023-04-09T04:46:04.013Z,17.08
2023-04-09T04:48:32.134Z,17.50
2023-04-09T04:51:01.096Z,18.63
2023-04-09T04:53:28.262Z,18.02
2023-04-09T04:55:55.279Z,18.15
2023-04-09T04:58:22.094Z,17.95
2023-04-09T05:00:48.994Z,18.23
2023-04-09T05:03:16.198Z,17.92
2023-04-09T05:05:43.129Z,17.60
2023-04-09T05:08:09.846Z,17.45
2023-04-09T05:10:36.577Z,17.38
2023-04-09T05:13:03.475Z,15.93
2023-04-09T05:15:31.028Z,15.95
2023-04-09T05:17:58.205Z,15.07
2023-04-09T05:20:27.182Z,15.57
2023-04-09T05:22:53.885Z,14.57
2023-04-09T05:25:20.698Z,14.30
2023-04-09T05:27:47.387Z,14.25
2023-04-09T05:30:14.103Z,13.95
2023-04-09T05:32:41.029Z,15.35
2023-04-09T05:35:08.289Z,14.27
2023-04-09T05:37:35.539Z,14.35
2023-04-09T05:40:02.410Z,14.43
2023-04-09T05:42:29.113Z,14.40
2023-04-09T05:44:56.039Z,17.73
2023-04-09T05:47:22.956Z,18.90
2023-04-09T05:49:49.705Z,20.27
2023-04-09T05:52:17.264Z,20.05
2023-04-09T05:54:44.208Z,19.73
2023-04-09T05:57:11.310Z,21.52
2023-04-09T05:59:38.105Z,20.80
2023-04-09T06:02:04.884Z,21.33
2023-04-09T06:04:31.932Z,21.08
2023-04-09T06:07:00.297Z,21.75
2023-04-09T06:09:29.956Z,22.25
2023-04-09T06:11:58.046Z,21.25
2023-04-09T06:14:24.781Z,22.60
2023-04-09T06:16:51.529Z,21.95
2023-04-09T06:19:18.818Z,21.38
2023-04-09T06:21:45.805Z,21.00
2023-04-09T06:24:12.787Z,22.05
2023-04-09T06:26:39.570Z,20.40
2023-04-09T06:29:06.444Z,20.73
2023-04-09T06:31:33.418Z,20.95
2023-04-09T06:34:00.618Z,20.48
2023-04-09T06:36:27.881Z,21.90
2023-04-09T06:38:54.863Z,20.25
2023-04-09T06:41:22.593Z,21.02
2023-04-09T06:43:50.083Z,21.52
2023-04-09T06:46:20.313Z,20.48
2023-04-09T06:48:47.842Z,21.67
2023-04-09T06:51:15.212Z,20.08
2023-04-09T06:53:42.596Z,20.48
2023-04-09T06:56:09.436Z,20.95
2023-04-09T06:58:36.786Z,20.10
2023-04-09T07:01:03.792Z,21.45
2023-04-09T07:03:30.981Z,19.95
2023-04-09T07:05:58.147Z,21.70
2023-04-09T07:08:25.410Z,21.50
2023-04-09T07:10:52.113Z,22.52
2023-04-09T07:13:18.840Z,19.45
2023-04-09T07:15:45.726Z,18.92
2023-04-09T07:18:12.482Z,19.58
2023-04-09T07:20:39.305Z,20.25
2023-04-09T07:23:06.026Z,20.58
2023-04-09T07:25:32.776Z,20.08
2023-04-09T07:27:59.575Z,18.80
2023-04-09T07:30:26.486Z,17.67
2023-04-09T07:32:53.405Z,19.55
2023-04-09T07:35:20.408Z,18.20
2023-04-09T07:37:47.139Z,18.30
2023-04-09T07:40:13.899Z,18.40
2023-04-09T07:42:40.791Z,17.38
2023-04-09T07:45:08.014Z,18.08
2023-04-09T07:47:34.723Z,17.95
2023-04-09T07:50:01.820Z,16.90
2023-04-09T07:52:28.540Z,17.17
2023-04-09T07:54:55.275Z,17.27
2023-04-09T07:57:22.153Z,17.27
2023-04-09T07:59:48.928Z,16.38
2023-04-09T08:02:15.675Z,17.13
2023-04-09T08:04:42.737Z,17.73
2023-04-09T08:07:09.635Z,16.75
2023-04-09T08:09:36.454Z,17.13
2023-04-09T08:12:03.457Z,16.50
2023-04-09T08:14:30.422Z,17.02
2023-04-09T08:16:57.120Z,16.52
2023-04-09T08:19:24.157Z,16.10
2023-04-09T08:21:51.309Z,16.65
2023-04-09T08:24:18.430Z,15.35
2023-04-09T08:26:45.675Z,15.93
2023-04-09T08:29:13.837Z,16.98
2023-04-09T08:31:40.625Z,18.10
2023-04-09T08:34:07.497Z,16.52
2023-04-09T08:36:35.521Z,16.70
2023-04-09T08:39:02.919Z,16.00
2023-04-09T08:41:29.880Z,16.90
2023-04-09T08:43:59.122Z,17.00
2023-04-09T08:46:27.356Z,17.35
2023-04-09T08:48:54.722Z,16.83
2023-04-09T08:51:23.439Z,16.52
2023-04-09T08:53:56.551Z,16.08
2023-04-09T08:56:24.021Z,16.95
2023-04-09T08:58:51.352Z,16.58
2023-04-09T09:01:23.206Z,16.95
2023-04-09T09:04:05.156Z,16.27
2023-04-09T09:06:34.272Z,16.13
2023-04-09T09:09:07.981Z,16.80
2023-04-09T09:11:46.473Z,16.10
2023-04-09T09:14:19.020Z,15.10
2023-04-09T09:16:58.213Z,14.82
2023-04-09T09:19:24.964Z,14.93
2023-04-09T09:21:58.633Z,15.05
2023-04-09T09:24:25.377Z,13.93
2023-04-09T09:26:54.398Z,14.63
2023-04-09T09:29:21.346Z,14.35
2023-04-09T09:31:52.652Z,15.23
2023-04-09T09:34:20.882Z,13.43
2023-04-09T09:36:48.052Z,13.63
2023-04-09T09:39:17.809Z,12.75
2023-04-09T09:41:46.054Z,12.50
2023-04-09T09:44:30.008Z,13.48
2023-04-09T09:46:57.582Z,13.23
2023-04-09T09:49:24.333Z,12.43
2023-04-09T09:51:53.443Z,11.40
2023-04-09T09:54:23.933Z,11.18
2023-04-09T09:56:52.710Z,10.70
2023-04-09T09:59:27.121Z,11.18
2023-04-09T10:02:01.499Z,11.52
2023-04-09T10:04:31.810Z,10.18
2023-04-09T10:07:00.650Z,10.10
2023-04-09T10:09:28.244Z,9.93
2023-04-09T10:11:56.863Z,8.52
2023-04-09T10:14:24.506Z,9.68
2023-04-09T10:16:51.539Z,8.05
2023-04-09T10:19:18.562Z,7.70
2023-04-09T10:22:04.561Z,8.73
2023-04-09T10:24:33.596Z,8.75
2023-04-09T10:27:12.121Z,8.13
2023-04-09T10:29:48.540Z,8.18
2023-04-09T10:32:26.501Z,9.40
2023-04-09T10:34:57.771Z,7.90
2023-04-09T10:37:25.837Z,8.13
2023-04-09T10:39:53.221Z,7.47
2023-04-09T10:42:29.196Z,6.68
2023-04-09T10:45:14.398Z,6.97
2023-04-09T10:47:43.050Z,6.82
2023-04-09T10:50:18.202Z,6.55
2023-04-09T10:52:45.480Z,6.32
2023-04-09T10:55:38.546Z,6.63
2023-04-09T10:58:12.714Z,7.07
2023-04-09T11:00:42.387Z,6.22
2023-04-09T11:03:09.405Z,6.53
2023-04-09T11:05:42.652Z,6.20
2023-04-09T11:08:12.105Z,7.10
2023-04-09T11:10:44.622Z,6.25
2023-04-09T11:13:13.593Z,6.13
2023-04-09T11:15:40.967Z,5.45
2023-04-09T11:18:09.997Z,5.45
2023-04-09T11:20:37.215Z,6.03
2023-04-09T11:23:04.006Z,5.70
2023-04-09T11:25:32.636Z,5.78
2023-04-09T11:28:00.599Z,5.88
2023-04-09T11:30:27.437Z,5.63
2023-04-09T11:32:55.061Z,5.88
2023-04-09T11:35:23.516Z,6.20
2023-04-09T11:37:52.183Z,6.00
2023-04-09T11:40:25.625Z,5.35
2023-04-09T11:42:54.276Z,5.45
2023-04-09T11:45:31.678Z,5.00
2023-04-09T11:47:58.935Z,5.18
2023-04-09T11:50:26.226Z,4.25
2023-04-09T11:52:53.033Z,3.90
2023-04-09T11:55:26.900Z,4.32
2023-04-09T11:57:58.277Z,4.10
2023-04-09T12:00:25.475Z,4.57
2023-04-09T12:03:03.296Z,4.93
2023-04-09T12:05:32.696Z,5.28
2023-04-09T12:08:08.984Z,5.05
2023-04-09T12:10:37.958Z,5.22
2023-04-09T12:13:10.380Z,4.80
2023-04-09T12:15:39.074Z,4.88
2023-04-09T12:18:10.036Z,5.40
2023-04-09T12:20:39.572Z,4.57
2023-04-09T12:23:07.677Z,5.15
2023-04-09T12:25:36.916Z,4.90
2023-04-09T12:28:07.709Z,4.60
2023-04-09T12:30:35.409Z,5.18
2023-04-09T12:33:04.078Z,5.70
2023-04-09T12:35:31.082Z,5.32
2023-04-09T12:37:59.413Z,5.45
2023-04-09T12:40:26.849Z,5.10
2023-04-09T12:42:54.142Z,4.57
2023-04-09T12:45:21.456Z,4.15
2023-04-09T12:47:48.291Z,3.92
2023-04-09T12:50:16.373Z,4.43
2023-04-09T12:52:44.283Z,5.20
2023-04-09T12:55:12.162Z,5.90
2023-04-09T12:57:41.707Z,4.65
2023-04-09T13:00:09.079Z,3.90
2023-04-09T13:02:36.638Z,4.03
2023-04-09T13:05:04.616Z,3.80
2023-04-09T13:07:31.418Z,3.60
2023-04-09T13:09:58.443Z,3.60
2023-04-09T13:12:25.406Z,4.00
2023-04-09T13:14:54.428Z,14.63
2023-04-09T13:17:22.012Z,4.00
2023-04-09T13:19:49.714Z,3.75
2023-04-09T13:22:16.781Z,4.40
2023-04-09T13:24:43.555Z,4.00
2023-04-09T13:27:11.390Z,4.00
2023-04-09T13:29:38.550Z,3.63
2023-04-09T13:32:10.856Z,4.40
2023-04-09T13:34:38.914Z,3.40
2023-04-09T13:37:05.697Z,4.18
2023-04-09T13:39:32.990Z,3.60
2023-04-09T13:42:07.384Z,3.90
2023-04-09T13:44:37.033Z,3.80
2023-04-09T13:47:03.735Z,3.63
2023-04-09T13:49:30.964Z,3.85
2023-04-09T13:51:57.937Z,3.30
2023-04-09T13:54:24.764Z,3.92
2023-04-09T13:56:53.684Z,4.10
2023-04-09T13:59:20.708Z,3.45
2023-04-09T14:01:47.510Z,4.32
2023-04-09T14:04:14.771Z,3.67
2023-04-09T14:06:42.610Z,3.28
2023-04-09T14:09:10.471Z,3.60
2023-04-09T14:11:37.335Z,3.13
2023-04-09T14:14:04.178Z,3.75
2023-04-09T14:16:31.282Z,3.90
2023-04-09T14:18:58.338Z,3.55
2023-04-09T14:21:26.920Z,3.50
2023-04-09T14:23:53.787Z,3.70
2023-04-09T14:26:22.210Z,3.70
2023-04-09T14:28:51.881Z,3.58
2023-04-09T14:31:21.813Z,3.20
2023-04-09T14:33:49.083Z,3.05
2023-04-09T14:36:16.338Z,3.30
2023-04-09T14:38:43.077Z,3.13
2023-04-09T14:41:10.042Z,4.13
2023-04-09T14:43:37.015Z,3.40
2023-04-09T14:46:05.409Z,3.47
2023-04-09T14:48:32.137Z,3.53
2023-04-09T14:50:58.845Z,3.38
2023-04-09T14:53:25.578Z,2.95
2023-04-09T14:55:52.354Z,2.80
2023-04-09T14:58:19.092Z,3.20
2023-04-09T15:00:45.845Z,3.80
2023-04-09T15:03:12.762Z,5.57
2023-04-09T15:05:39.699Z,5.30
2023-04-09T15:08:06.438Z,4.63
2023-04-09T15:10:33.212Z,4.53
2023-04-09T15:12:59.911Z,5.07
2023-04-09T15:15:27.244Z,4.63
2023-04-09T15:17:53.942Z,5.38
2023-04-09T15:20:20.810Z,4.75
2023-04-09T15:22:47.486Z,6.43
2023-04-09T15:25:14.656Z,7.63
2023-04-09T15:27:41.401Z,7.20
2023-04-09T15:30:08.789Z,4.93
2023-04-09T15:32:35.562Z,3.80
2023-04-09T15:35:02.280Z,3.67
2023-04-09T15:37:29.037Z,3.60
2023-04-09T15:39:56.538Z,4.30
2023-04-09T15:42:23.377Z,3.90
2023-04-09T15:44:50.917Z,3.72
2023-04-09T15:47:17.932Z,4.32
2023-04-09T15:49:50.749Z,4.13
2023-04-09T15:52:17.465Z,4.15
2023-04-09T15:54:44.227Z,4.32
2023-04-09T15:57:10.956Z,4.70
2023-04-09T15:59:37.728Z,5.05
2023-04-09T16:02:04.639Z,4.63
2023-04-09T16:04:31.509Z,5.22
2023-04-09T16:06:58.492Z,5.10
2023-04-09T16:09:25.476Z,5.10
2023-04-09T16:11:52.185Z,5.63
2023-04-09T16:14:19.024Z,6.40
2023-04-09T16:16:49.923Z,5.43
2023-04-09T16:19:17.884Z,6.43
2023-04-09T16:21:45.505Z,6.00
2023-04-09T16:24:12.815Z,5.60
2023-04-09T16:26:40.968Z,6.05
2023-04-09T16:29:57.309Z,5.65
2023-04-09T16:32:58.217Z,6.45
2023-04-09T16:39:13.190Z,7.90
2023-04-09T16:41:39.791Z,7.35
2023-04-09T16:44:06.676Z,7.35
2023-04-09T16:46:33.401Z,6.90
2023-04-09T16:49:00.225Z,6.13
2023-04-09T16:51:27.379Z,5.93
2023-04-09T16:53:54.046Z,5.00
2023-04-09T16:56:20.996Z,5.93
2023-04-09T16:58:47.659Z,6.07
2023-04-09T17:01:14.525Z,5.35
2023-04-09T17:03:41.413Z,5.70
2023-04-09T17:06:08.325Z,5.30
2023-04-09T17:08:35.452Z,6.63
2023-04-09T17:11:02.493Z,6.68
2023-04-09T17:13:31.448Z,6.75
2023-04-09T17:15:58.271Z,7.25
2023-04-09T17:18:25.015Z,6.72
2023-04-09T17:20:52.111Z,7.25
2023-04-09T17:23:18.948Z,7.10
2023-04-09T17:25:46.457Z,7.57
2023-04-09T17:28:13.384Z,7.28
2023-04-09T17:30:40.104Z,7.70
2023-04-09T17:33:07.084Z,8.27
2023-04-09T17:35:34.153Z,7.80
2023-04-09T17:38:01.478Z,7.70
2023-04-09T17:40:28.516Z,8.80
2023-04-09T17:42:56.184Z,8.32
2023-04-09T17:45:23.083Z,8.45
2023-04-09T17:47:51.170Z,7.90
2023-04-09T17:50:18.304Z,8.00
2023-04-09T17:52:45.078Z,8.90
2023-04-09T17:55:12.958Z,8.07
2023-04-09T17:57:40.900Z,8.50
2023-04-09T18:00:08.230Z,8.63
2023-04-09T18:02:35.800Z,8.48
2023-04-09T18:05:07.295Z,8.70
2023-04-09T18:07:34.551Z,8.80
2023-04-09T18:10:02.936Z,8.70
2023-04-09T18:12:29.828Z,8.63
2023-04-09T18:14:56.728Z,8.98
2023-04-09T18:17:23.509Z,9.23
2023-04-09T18:19:50.465Z,9.77
2023-04-09T18:22:17.179Z,8.82
2023-04-09T18:24:43.844Z,9.05
2023-04-09T18:27:10.567Z,8.55
2023-04-09T18:29:37.306Z,9.95
2023-04-09T18:32:04.026Z,10.20
2023-04-09T18:34:30.833Z,9.68
2023-04-09T18:36:57.555Z,10.82
2023-04-09T18:39:24.571Z,10.88
2023-04-09T18:41:51.484Z,9.35
2023-04-09T18:44:18.302Z,10.27
2023-04-09T18:46:45.381Z,9.57
2023-04-09T18:49:12.086Z,9.65
2023-04-09T18:51:38.763Z,10.30
2023-04-09T18:54:05.692Z,10.38
2023-04-09T18:56:32.392Z,9.90
2023-04-09T18:58:59.102Z,9.85
2023-04-09T19:01:25.940Z,10.15
2023-04-09T19:03:53.542Z,9.25
2023-04-09T19:06:20.867Z,9.77
2023-04-09T19:08:48.258Z,9.65
2023-04-09T19:11:15.488Z,10.00
2023-04-09T19:13:42.140Z,10.23
2023-04-09T19:16:09.370Z,9.65
2023-04-09T19:18:37.393Z,9.38
2023-04-09T19:21:05.317Z,8.90
2023-04-09T19:23:34.168Z,9.18
2023-04-09T19:26:01.801Z,9.63
2023-04-09T19:28:28.714Z,9.35
2023-04-09T19:30:55.751Z,9.05
2023-04-09T19:33:24.011Z,8.70
2023-04-09T19:35:52.039Z,10.13
2023-04-09T19:38:19.206Z,9.20
2023-04-09T19:40:46.524Z,8.60
2023-04-09T19:43:13.857Z,10.10
2023-04-09T19:45:42.778Z,9.68
2023-04-09T19:48:09.622Z,10.13
2023-04-09T19:50:38.028Z,9.18
2023-04-09T19:53:05.955Z,9.38
2023-04-09T19:55:33.918Z,9.05
2023-04-09T19:58:01.375Z,9.27
2023-04-09T20:00:28.367Z,9.15
2023-04-09T20:02:55.694Z,9.45
2023-04-09T20:05:22.708Z,8.88
2023-04-09T20:07:50.561Z,9.07
2023-04-09T20:10:17.458Z,9.15
2023-04-09T20:12:47.831Z,9.38
2023-04-09T20:15:15.223Z,9.15
2023-04-09T20:17:42.001Z,8.80
2023-04-09T20:20:08.950Z,8.77
2023-04-09T20:22:35.725Z,9.00
2023-04-09T20:25:02.525Z,8.98
2023-04-09T20:27:29.209Z,9.07
2023-04-09T20:29:56.139Z,9.05
2023-04-09T20:32:23.164Z,9.35
2023-04-09T20:34:49.831Z,9.38
2023-04-09T20:37:16.502Z,9.00
2023-04-09T20:39:43.355Z,8.65
2023-04-09T20:42:10.142Z,8.95
2023-04-09T20:44:36.932Z,8.88
2023-04-09T20:47:03.594Z,8.43
2023-04-09T20:49:30.595Z,9.18
2023-04-09T20:51:57.497Z,8.73
2023-04-09T20:54:24.356Z,9.07
2023-04-09T20:56:51.486Z,8.90
2023-04-09T20:59:19.136Z,9.10
2023-04-09T21:01:45.941Z,9.07
2023-04-09T21:04:13.158Z,9.40
2023-04-09T21:06:40.412Z,8.90
2023-04-09T21:09:07.087Z,9.18
2023-04-09T21:11:33.834Z,9.20
2023-04-09T21:14:00.582Z,8.98
2023-04-09T21:16:28.484Z,8.98
2023-04-09T21:18:55.702Z,8.88
2023-04-09T21:21:22.524Z,9.65
2023-04-09T21:23:49.311Z,9.25
2023-04-09T21:26:16.006Z,9.45
2023-04-09T21:28:42.877Z,9.13
2023-04-09T21:31:11.337Z,9.55
2023-04-09T21:33:39.237Z,9.43
2023-04-09T21:36:07.886Z,9.65
2023-04-09T21:38:34.779Z,9.45
2023-04-09T21:41:01.791Z,10.02
2023-04-09T21:43:29.189Z,9.18
2023-04-09T21:45:57.200Z,9.68
2023-04-09T21:48:24.314Z,8.43
2023-04-09T21:50:51.000Z,8.70
2023-04-09T21:53:18.213Z,9.50
2023-04-09T21:55:44.904Z,8.00
2023-04-09T21:58:12.018Z,8.82
2023-04-09T22:00:38.803Z,9.40
2023-04-09T22:03:05.583Z,8.82
2023-04-09T22:05:34.343Z,8.70
2023-04-09T22:08:01.173Z,8.48
2023-04-09T22:10:27.948Z,8.48
2023-04-09T22:12:55.496Z,9.45
2023-04-09T22:15:22.243Z,9.07
2023-04-09T22:17:48.981Z,8.70
2023-04-09T22:20:16.003Z,9.07
2023-04-09T22:22:42.864Z,8.70
2023-04-09T22:25:11.585Z,9.10
2023-04-09T22:27:38.332Z,8.45
2023-04-09T22:30:05.773Z,9.20
2023-04-09T22:32:33.559Z,9.35
2023-04-09T22:35:00.556Z,9.20
2023-04-09T22:37:27.861Z,9.60
2023-04-09T22:39:54.770Z,8.77
2023-04-09T22:42:21.522Z,9.55
2023-04-09T22:44:48.290Z,9.00
2023-04-09T22:47:14.999Z,9.32
2023-04-09T22:49:41.711Z,9.30
2023-04-09T22:52:08.477Z,8.80
2023-04-09T22:54:35.507Z,9.32
2023-04-09T22:57:02.256Z,9.45
2023-04-09T22:59:38.923Z,9.73
2023-04-09T23:02:07.568Z,8.85
2023-04-09T23:04:34.977Z,9.38
2023-04-09T23:07:02.381Z,8.70
2023-04-09T23:09:30.858Z,9.80
2023-04-09T23:11:58.062Z,9.70
2023-04-09T23:14:24.852Z,9.40
2023-04-09T23:16:51.509Z,9.50
2023-04-09T23:19:18.258Z,9.40
2023-04-09T23:21:44.997Z,9.35
2023-04-09T23:24:11.715Z,9.27
2023-04-09T23:26:38.440Z,8.65
2023-04-09T23:29:05.341Z,8.90
2023-04-09T23:31:32.039Z,9.57
2023-04-09T23:33:58.887Z,9.10
2023-04-09T23:36:26.085Z,9.43
2023-04-09T23:38:52.867Z,9.05
2023-04-09T23:41:19.583Z,8.95
2023-04-09T23:43:46.800Z,9.80
2023-04-09T23:46:13.475Z,8.40
2023-04-09T23:48:40.720Z,8.43
2023-04-09T23:51:07.469Z,9.30
2023-04-09T23:53:34.140Z,8.60
2023-04-09T23:56:00.953Z,8.63
2023-04-09T23:58:27.856Z,8.85
